createdAt,value
2022-12-23T00:07:51.286Z,10.1
2022-12-23T00:17:53.293Z,10.1
2022-12-23T00:27:55.465Z,10.1
2022-12-23T00:37:57.229Z,10.1
2022-12-23T00:47:58.895Z,10.1
2022-12-23T00:58:01.473Z,10
2022-12-23T01:08:03.192Z,10
2022-12-23T01:18:05.572Z,10
2022-12-23T01:28:07.560Z,9.9
2022-12-23T01:38:09.556Z,10
2022-12-23T01:48:11.782Z,10
2022-12-23T01:58:13.725Z,10
2022-12-23T02:08:16.252Z,10
2022-12-23T02:18:18.764Z,10
2022-12-23T02:28:20.753Z,10
2022-12-23T02:38:23.023Z,9.9
2022-12-23T02:48:25.027Z,9.9
2022-12-23T02:58:27.395Z,9.9
2022-12-23T03:08:29.149Z,9.9
2022-12-23T03:18:31.773Z,10
2022-12-23T03:28:34.169Z,10
2022-12-23T03:38:36.169Z,9.9
2022-12-23T03:48:37.793Z,9.9
2022-12-23T03:58:39.777Z,10
2022-12-23T04:08:41.846Z,10
2022-12-23T04:18:43.836Z,9.9
2022-12-23T04:28:45.975Z,10
2022-12-23T04:38:47.959Z,10
2022-12-23T04:48:49.811Z,10
2022-12-23T04:58:52.272Z,10
2022-12-23T05:08:54.491Z,9.9
2022-12-23T05:18:56.965Z,9.9
2022-12-23T05:28:59.339Z,9.9
2022-12-23T05:39:01.759Z,9.9
2022-12-23T05:49:04.227Z,9.9
2022-12-23T05:59:06.145Z,9.9
2022-12-23T06:09:08.698Z,9.9
2022-12-23T06:19:10.582Z,9.8
2022-12-23T06:29:13.057Z,9.8
2022-12-23T06:39:15.272Z,9.8
2022-12-23T06:49:16.983Z,9.8
2022-12-23T06:59:19.229Z,9.8
2022-12-23T07:09:21.476Z,9.8
2022-12-23T07:19:23.309Z,9.8
2022-12-23T07:29:25.709Z,9.8
2022-12-23T07:39:27.881Z,9.8
2022-12-23T07:49:30.351Z,9.8
2022-12-23T07:59:32.039Z,9.8
2022-12-23T08:09:34.480Z,9.8
2022-12-23T08:19:36.871Z,9.8
2022-12-23T08:39:40.884Z,9.8
2022-12-23T08:49:43.157Z,9.7
2022-12-23T08:59:45.057Z,9.7
2022-12-23T09:09:46.829Z,9.7
2022-12-23T09:19:52.845Z,9.7
2022-12-23T09:29:51.294Z,9.6
2022-12-23T09:39:53.505Z,9.6
2022-12-23T09:49:55.644Z,9.7
2022-12-23T09:59:58.137Z,9.7
2022-12-23T10:10:00.476Z,9.7
2022-12-23T10:20:02.435Z,9.7
2022-12-23T10:30:20.204Z,9.7
2022-12-23T10:40:06.934Z,9.7
2022-12-23T10:50:09.382Z,9.7
2022-12-23T11:00:11.522Z,9.7
2022-12-23T11:10:13.393Z,9.8
2022-12-23T11:20:15.669Z,9.8
2022-12-23T11:30:17.805Z,9.8
2022-12-23T11:40:20.277Z,9.8
2022-12-23T11:50:22.138Z,9.8
2022-12-23T12:00:24.379Z,9.8
2022-12-23T12:10:26.278Z,9.8
2022-12-23T12:20:28.097Z,9.7
2022-12-23T12:30:30.154Z,9.7
2022-12-23T12:40:32.468Z,9.6
2022-12-23T12:50:34.470Z,9.7
2022-12-23T13:10:39.260Z,9.5
2022-12-23T13:20:41.332Z,9.5
2022-12-23T13:30:43.186Z,9.5
2022-12-23T13:40:45.305Z,9.5
2022-12-23T13:50:46.993Z,9.5
2022-12-23T14:00:49.378Z,9.5
2022-12-23T14:10:51.081Z,9.6
2022-12-23T14:20:53.549Z,9.6
2022-12-23T14:30:55.674Z,9.5
2022-12-23T14:40:58.228Z,9.5
2022-12-23T14:51:00.034Z,9.4
2022-12-23T15:01:01.921Z,9.3
2022-12-23T15:21:06.039Z,9.2
2022-12-23T15:31:08.026Z,9.1
2022-12-23T15:41:10.444Z,9.1
2022-12-23T15:51:12.392Z,9.1
2022-12-23T16:01:14.891Z,9
2022-12-23T16:11:17.063Z,9.1
2022-12-23T16:21:19.718Z,9.1
2022-12-23T16:31:22.335Z,9.3
2022-12-23T16:41:24.585Z,9.6
2022-12-23T16:51:26.691Z,9.6
2022-12-23T17:11:31.567Z,10.3
2022-12-23T17:21:33.301Z,11
2022-12-23T17:31:42.573Z,11.3
2022-12-23T17:41:45.157Z,11.4
2022-12-23T17:51:47.299Z,11.4
2022-12-23T18:01:49.474Z,11.6
2022-12-23T18:11:51.201Z,11.7
2022-12-23T18:31:55.736Z,11.5
2022-12-23T18:52:00.098Z,11.4
2022-12-23T19:02:02.099Z,11.2
2022-12-23T19:12:03.742Z,11.2
2022-12-23T19:22:06.178Z,11.5
2022-12-23T19:32:08.054Z,11.5
2022-12-23T19:42:10.214Z,11.4
2022-12-23T19:52:12.684Z,11.5
2022-12-23T20:02:15.070Z,11.4
2022-12-23T20:12:17.601Z,11.3
2022-12-23T20:22:19.273Z,11.2
2022-12-23T20:32:21.408Z,11.2
2022-12-23T20:42:23.758Z,11.2
2022-12-23T20:52:26.100Z,11.2
2022-12-23T21:02:27.987Z,11.3
2022-12-23T21:12:30.024Z,11.3
2022-12-23T21:52:38.931Z,10.9
2022-12-23T22:02:40.922Z,10.8
2022-12-23T22:12:42.931Z,10.8
2022-12-23T22:22:44.632Z,10.9
2022-12-23T22:42:48.860Z,11
2022-12-23T22:52:50.953Z,10.8
2022-12-23T23:02:52.670Z,10.8
2022-12-23T23:12:54.658Z,10.7
2022-12-23T23:22:56.813Z,10.7
2022-12-23T23:32:59.083Z,10.6
2022-12-23T23:43:01.440Z,10.6
2022-12-23T23:53:03.232Z,10.6
